• Join FlightAware (Why Join?)
  • Login
  • US Flag 
11:52PM EDT


 

Airport Tracker/Info


-or-


 

Live Flight TrackerFlight Track Log ✈ ASQ3841 ✈ 10-May-2013 ✈ KEWR - KMHT

Flight Track Log - Related Links

Times and Time Zones

All times are in EDT time to prevent confusion due to time zone crossing. See the ASQ3841 flight status page for this flight to view local times or setup timezone preferences in your user account.

Time Position Orientation Groundspeed Altitude Reporting Facility
EDT Latitude Longitude Course Direction KTS MPH feet Rate Location/Type
03:29PM 41.1486 -73.6565 27° Northeast  Level FlightAware Approximate
03:30PM 41.2444 -73.5556 37° Northeast  Level FlightAware Approximate
03:31PM 41.3434 -73.4566 37° Northeast  Level FlightAware Approximate
03:32PM 41.4359 -73.3474 37° Northeast  Level FlightAware Approximate
03:33PM 41.5225 -73.2382 56° Northeast  Level FlightAware Approximate
03:34PM 41.6120 -73.1249 41° Northeast  Level FlightAware Approximate
03:35PM 41.7266 -73.1181 354° North  Level FlightAware Approximate
03:36PM 41.8498 -73.1356 354° North  Level FlightAware Approximate
03:37PM 41.9729 -73.1532 354° North  Level FlightAware Approximate
03:38PM 42.0959 -73.1725 352° North  Level FlightAware Approximate
03:39PM 42.2185 -73.1969 352° North  Level FlightAware Approximate
03:40PM 42.3410 -73.2213 352° North  Level FlightAware Approximate
03:41PM 42.4635 -73.2459 352° North  Level FlightAware Approximate
03:42PM 42.5747 -73.2425 66° East  Level FlightAware Approximate
03:43PM 42.6142 -73.0832 73° East  Level FlightAware Approximate
03:44PM 42.6447 -72.9214 71° East  Level FlightAware Approximate
03:45PM 42.6836 -72.7615 72° East  Level FlightAware Approximate
03:46PM 42.7212 -72.6009 72° East  Level FlightAware Approximate
03:47PM 42.7586 -72.4401 72° East  Level FlightAware Approximate
03:48PM 42.7840 -72.2766 83° East  Level FlightAware Approximate
03:49PM 42.7992 -72.1091 83° East  Level FlightAware Approximate
03:50PM 42.8144 -71.9416 83° East  Level FlightAware Approximate
03:51PM 42.8208 -71.7735 78° East  Level FlightAware Approximate
03:52PM 42.8462 -71.6082 78° East  Level FlightAware Approximate
03:53PM 42.8544 -71.4405 77° East  Level FlightAware Approximate
03:54PM 42.9156 -71.4319 316° Northwest  Level FlightAware Approximate
03:55PM 42.9167 -71.4333 316° Northwest  Level FlightAware Approximate
03:56PM 42.9328 -71.4358 316° Northwest  Level Estimated
03:57PM 42.9328 -71.4358 316° Northwest  Level Estimated
03:58PM 42.9328 -71.4358 316° Northwest  Level Estimated
03:59PM 42.9328 -71.4358 316° Northwest  Level Estimated
04:00PM 42.9328 -71.4358 316° Northwest  Level Estimated
04:01PM 42.9328 -71.4358 316° Northwest  Level Estimated
04:02PM 42.9328 -71.4358 316° Northwest  Level Estimated
04:03PM 42.9328 -71.4358 316° Northwest  Level Estimated
04:04PM 42.9328 -71.4358 316° Northwest  Level Estimated
04:05PM 42.9328 -71.4358 316° Northwest  Level Estimated
04:06PM 42.9328 -71.4358 316° Northwest  Level Estimated
04:07PM 42.9328 -71.4358 316° Northwest  Level Estimated
04:08PM 42.9328 -71.4358 316° Northwest  Level Estimated